sensor_id;sensor_type;location;lat;lon;timestamp;pressure;altitude;pressure_sealevel;temperature;humidity
34081;BME280;20358;50.272;19.026;2023-04-22T00:00:12;98147.19;;;7.79;44.27
34081;BME280;20358;50.272;19.026;2023-04-22T00:03:22;98147.41;;;7.76;44.69
34081;BME280;20358;50.272;19.026;2023-04-22T00:06:28;98134.50;;;7.73;44.85
34081;BME280;20358;50.272;19.026;2023-04-22T00:09:34;98138.91;;;7.72;45.23
34081;BME280;20358;50.272;19.026;2023-04-22T00:12:40;98139.09;;;7.69;44.15
34081;BME280;20358;50.272;19.026;2023-04-22T00:15:47;98137.72;;;7.64;45.08
34081;BME280;20358;50.272;19.026;2023-04-22T00:18:55;98130.13;;;7.59;45.78
34081;BME280;20358;50.272;19.026;2023-04-22T00:22:02;98130.34;;;7.56;44.69
34081;BME280;20358;50.272;19.026;2023-04-22T00:25:08;98129.69;;;7.53;45.92
34081;BME280;20358;50.272;19.026;2023-04-22T00:28:14;98129.06;;;7.49;44.89
34081;BME280;20358;50.272;19.026;2023-04-22T00:31:20;98135.34;;;7.47;45.17
34081;BME280;20358;50.272;19.026;2023-04-22T00:34:29;98132.00;;;7.45;45.25
34081;BME280;20358;50.272;19.026;2023-04-22T00:37:35;98130.41;;;7.42;46.07
34081;BME280;20358;50.272;19.026;2023-04-22T00:40:41;98126.09;;;7.41;45.41
34081;BME280;20358;50.272;19.026;2023-04-22T00:43:47;98126.28;;;7.38;46.24
34081;BME280;20358;50.272;19.026;2023-04-22T00:46:55;98123.22;;;7.31;45.87
34081;BME280;20358;50.272;19.026;2023-04-22T00:50:06;98127.09;;;7.26;46.54
34081;BME280;20358;50.272;19.026;2023-04-22T00:53:13;98129.16;;;7.21;46.60
34081;BME280;20358;50.272;19.026;2023-04-22T00:56:20;98133.75;;;7.17;46.69
34081;BME280;20358;50.272;19.026;2023-04-22T00:59:30;98133.09;;;7.14;46.74
34081;BME280;20358;50.272;19.026;2023-04-22T01:02:37;98130.59;;;7.12;46.98
34081;BME280;20358;50.272;19.026;2023-04-22T01:05:47;98131.63;;;7.10;46.05
34081;BME280;20358;50.272;19.026;2023-04-22T01:08:55;98131.63;;;7.10;46.31
34081;BME280;20358;50.272;19.026;2023-04-22T01:12:01;98130.16;;;7.06;46.11
34081;BME280;20358;50.272;19.026;2023-04-22T01:15:07;98128.66;;;7.02;47.07
34081;BME280;20358;50.272;19.026;2023-04-22T01:18:14;98129.69;;;6.99;46.69
34081;BME280;20358;50.272;19.026;2023-04-22T01:21:25;98117.25;;;6.89;47.39
34081;BME280;20358;50.272;19.026;2023-04-22T01:24:38;98130.06;;;6.93;47.76
34081;BME280;20358;50.272;19.026;2023-04-22T01:27:44;98134.50;;;6.93;47.11
34081;BME280;20358;50.272;19.026;2023-04-22T01:30:51;98130.16;;;6.92;47.41
34081;BME280;20358;50.272;19.026;2023-04-22T01:33:58;98122.69;;;6.86;47.31
34081;BME280;20358;50.272;19.026;2023-04-22T01:37:05;98121.63;;;6.88;47.00
34081;BME280;20358;50.272;19.026;2023-04-22T01:40:15;98134.75;;;6.88;48.09
34081;BME280;20358;50.272;19.026;2023-04-22T01:43:24;98124.38;;;6.87;47.49
34081;BME280;20358;50.272;19.026;2023-04-22T01:46:32;98130.75;;;6.83;47.82
34081;BME280;20358;50.272;19.026;2023-04-22T01:49:41;98125.72;;;6.80;47.95
34081;BME280;20358;50.272;19.026;2023-04-22T01:52:46;98088.75;;;6.54;48.49
34081;BME280;20358;50.272;19.026;2023-04-22T01:55:56;98125.13;;;6.74;48.10
34081;BME280;20358;50.272;19.026;2023-04-22T01:59:01;98128.66;;;6.73;47.97
34081;BME280;20358;50.272;19.026;2023-04-22T02:02:11;98134.09;;;6.70;48.58
34081;BME280;20358;50.272;19.026;2023-04-22T02:05:17;98132.50;;;6.68;48.28
34081;BME280;20358;50.272;19.026;2023-04-22T02:08:23;98124.19;;;6.61;48.76
34081;BME280;20358;50.272;19.026;2023-04-22T02:11:31;98127.94;;;6.57;48.55
34081;BME280;20358;50.272;19.026;2023-04-22T02:14:38;98127.31;;;6.54;49.03
34081;BME280;20358;50.272;19.026;2023-04-22T02:17:43;98133.53;;;6.51;48.93
34081;BME280;20358;50.272;19.026;2023-04-22T02:20:50;98138.22;;;6.46;49.41
34081;BME280;20358;50.272;19.026;2023-04-22T02:23:56;98136.00;;;6.40;49.26
34081;BME280;20358;50.272;19.026;2023-04-22T02:27:06;98135.34;;;6.37;49.76
34081;BME280;20358;50.272;19.026;2023-04-22T02:30:12;98125.88;;;6.34;49.95
34081;BME280;20358;50.272;19.026;2023-04-22T02:33:18;98123.44;;;6.31;50.55
34081;BME280;20358;50.272;19.026;2023-04-22T02:36:26;98128.13;;;6.26;51.17
34081;BME280;20358;50.272;19.026;2023-04-22T02:39:33;98127.47;;;6.23;51.16
34081;BME280;20358;50.272;19.026;2023-04-22T02:42:43;98121.75;;;6.16;51.01
34081;BME280;20358;50.272;19.026;2023-04-22T02:45:50;98125.69;;;6.09;51.30
34081;BME280;20358;50.272;19.026;2023-04-22T02:48:56;98124.94;;;6.07;51.33
34081;BME280;20358;50.272;19.026;2023-04-22T02:52:03;98126.03;;;6.03;51.65
34081;BME280;20358;50.272;19.026;2023-04-22T02:55:09;98126.22;;;6.00;51.79
34081;BME280;20358;50.272;19.026;2023-04-22T02:58:18;98126.50;;;5.95;51.81
34081;BME280;20358;50.272;19.026;2023-04-22T03:01:24;98123.19;;;5.92;52.18
34081;BME280;20358;50.272;19.026;2023-04-22T03:04:34;98130.16;;;5.93;52.29
34081;BME280;20358;50.272;19.026;2023-04-22T03:07:40;98121.53;;;5.91;52.23
34081;BME280;20358;50.272;19.026;2023-04-22T03:10:47;98128.44;;;5.92;52.08
34081;BME280;20358;50.272;19.026;2023-04-22T03:13:55;98131.16;;;5.90;52.36
34081;BME280;20358;50.272;19.026;2023-04-22T03:17:02;98125.19;;;5.88;52.34
34081;BME280;20358;50.272;19.026;2023-04-22T03:20:09;98127.13;;;5.85;52.17
34081;BME280;20358;50.272;19.026;2023-04-22T03:23:17;98122.91;;;5.82;52.25
34081;BME280;20358;50.272;19.026;2023-04-22T03:26:22;98121.25;;;5.81;52.33
34081;BME280;20358;50.272;19.026;2023-04-22T03:29:32;98126.72;;;5.77;52.56
34081;BME280;20358;50.272;19.026;2023-04-22T03:32:37;98121.88;;;5.71;52.47
34081;BME280;20358;50.272;19.026;2023-04-22T03:35:52;98129.91;;;5.68;52.60
34081;BME280;20358;50.272;19.026;2023-04-22T03:38:59;98128.38;;;5.64;52.68
34081;BME280;20358;50.272;19.026;2023-04-22T03:42:10;98131.28;;;5.59;52.77
34081;BME280;20358;50.272;19.026;2023-04-22T03:45:20;98130.59;;;5.56;52.88
34081;BME280;20358;50.272;19.026;2023-04-22T03:48:44;98129.94;;;5.52;53.08
34081;BME280;20358;50.272;19.026;2023-04-22T03:51:59;98131.72;;;5.51;53.03
34081;BME280;20358;50.272;19.026;2023-04-22T03:55:07;98131.72;;;5.51;53.20
34081;BME280;20358;50.272;19.026;2023-04-22T03:58:14;98130.03;;;5.50;53.16
34081;BME280;20358;50.272;19.026;2023-04-22T04:01:25;98133.59;;;5.49;52.82
34081;BME280;20358;50.272;19.026;2023-04-22T04:04:34;98133.59;;;5.49;53.46
34081;BME280;20358;50.272;19.026;2023-04-22T04:07:42;98143.31;;;5.47;53.24
34081;BME280;20358;50.272;19.026;2023-04-22T04:10:48;98138.25;;;5.44;53.32
34081;BME280;20358;50.272;19.026;2023-04-22T04:13:54;98131.47;;;5.40;53.57
34081;BME280;20358;50.272;19.026;2023-04-22T04:17:08;98140.09;;;5.42;53.86
34081;BME280;20358;50.272;19.026;2023-04-22T04:20:16;98133.94;;;5.43;54.01
34081;BME280;20358;50.272;19.026;2023-04-22T04:23:22;98132.16;;;5.44;54.23
34081;BME280;20358;50.272;19.026;2023-04-22T04:26:29;98141.63;;;5.46;54.11
34081;BME280;20358;50.272;19.026;2023-04-22T04:30:00;98140.69;;;5.47;54.31
34081;BME280;20358;50.272;19.026;2023-04-22T04:33:15;98132.63;;;5.50;54.25
34081;BME280;20358;50.272;19.026;2023-04-22T04:36:21;98142.03;;;5.55;54.08
34081;BME280;20358;50.272;19.026;2023-04-22T04:39:41;98143.53;;;5.59;54.30
34081;BME280;20358;50.272;19.026;2023-04-22T04:42:48;98148.53;;;5.63;54.11
34081;BME280;20358;50.272;19.026;2023-04-22T04:46:02;98152.53;;;5.69;54.27
34081;BME280;20358;50.272;19.026;2023-04-22T04:49:12;98150.50;;;5.74;54.21
34081;BME280;20358;50.272;19.026;2023-04-22T04:52:28;98160.63;;;5.80;53.95
34081;BME280;20358;50.272;19.026;2023-04-22T04:55:33;98157.66;;;5.86;53.73
34081;BME280;20358;50.272;19.026;2023-04-22T04:58:46;98151.28;;;5.90;53.70
34081;BME280;20358;50.272;19.026;2023-04-22T05:01:56;98156.75;;;6.01;53.41
34081;BME280;20358;50.272;19.026;2023-04-22T05:05:08;98149.09;;;6.12;53.48
34081;BME280;20358;50.272;19.026;2023-04-22T05:08:16;98147.50;;;6.24;53.27
34081;BME280;20358;50.272;19.026;2023-04-22T05:11:24;98143.69;;;6.29;53.35
34081;BME280;20358;50.272;19.026;2023-04-22T05:14:32;98149.31;;;6.37;52.99
34081;BME280;20358;50.272;19.026;2023-04-22T05:17:38;98147.44;;;6.53;53.22
34081;BME280;20358;50.272;19.026;2023-04-22T05:20:47;98149.09;;;6.68;52.39
34081;BME280;20358;50.272;19.026;2023-04-22T05:23:57;98144.63;;;6.85;51.88
34081;BME280;20358;50.272;19.026;2023-04-22T05:27:03;98145.44;;;6.99;51.98
34081;BME280;20358;50.272;19.026;2023-04-22T05:30:10;98144.66;;;7.11;51.01
34081;BME280;20358;50.272;19.026;2023-04-22T05:33:16;98143.03;;;7.23;51.25
34081;BME280;20358;50.272;19.026;2023-04-22T05:36:26;98153.47;;;7.37;50.04
34081;BME280;20358;50.272;19.026;2023-04-22T05:39:33;98153.44;;;7.51;50.05
34081;BME280;20358;50.272;19.026;2023-04-22T05:42:44;98154.53;;;7.61;50.08
34081;BME280;20358;50.272;19.026;2023-04-22T05:45:49;98152.22;;;7.69;49.79
34081;BME280;20358;50.272;19.026;2023-04-22T05:48:56;98148.78;;;7.81;49.90
34081;BME280;20358;50.272;19.026;2023-04-22T05:52:58;98147.03;;;7.94;48.50
34081;BME280;20358;50.272;19.026;2023-04-22T05:56:05;98143.72;;;8.05;48.12
34081;BME280;20358;50.272;19.026;2023-04-22T05:59:11;98147.31;;;8.17;48.52
34081;BME280;20358;50.272;19.026;2023-04-22T06:02:18;98155.28;;;8.28;47.74
34081;BME280;20358;50.272;19.026;2023-04-22T06:05:24;98147.72;;;8.36;47.67
34081;BME280;20358;50.272;19.026;2023-04-22T06:08:35;98162.69;;;8.48;47.66
34081;BME280;20358;50.272;19.026;2023-04-22T06:11:40;98157.72;;;8.56;46.42
34081;BME280;20358;50.272;19.026;2023-04-22T06:14:47;98159.72;;;8.65;46.03
34081;BME280;20358;50.272;19.026;2023-04-22T06:17:52;98159.16;;;8.73;46.92
34081;BME280;20358;50.272;19.026;2023-04-22T06:20:59;98166.22;;;8.85;46.39
34081;BME280;20358;50.272;19.026;2023-04-22T06:24:07;98159.25;;;8.96;46.12
34081;BME280;20358;50.272;19.026;2023-04-22T06:27:17;98159.53;;;9.04;44.82
34081;BME280;20358;50.272;19.026;2023-04-22T06:30:23;98155.84;;;9.19;45.02
34081;BME280;20358;50.272;19.026;2023-04-22T06:33:30;98154.84;;;9.33;45.45
34081;BME280;20358;50.272;19.026;2023-04-22T06:36:36;98159.13;;;9.47;44.67
34081;BME280;20358;50.272;19.026;2023-04-22T06:39:45;98159.66;;;9.63;45.21
34081;BME280;20358;50.272;19.026;2023-04-22T06:43:34;98159.25;;;9.80;44.62
34081;BME280;20358;50.272;19.026;2023-04-22T06:46:41;98167.94;;;9.93;44.22
34081;BME280;20358;50.272;19.026;2023-04-22T06:50:07;98140.38;;;9.97;44.45
34081;BME280;20358;50.272;19.026;2023-04-22T06:53:48;98162.78;;;10.26;43.91
34081;BME280;20358;50.272;19.026;2023-04-22T06:56:56;98151.41;;;10.37;43.90
34081;BME280;20358;50.272;19.026;2023-04-22T07:00:06;98155.16;;;10.46;43.47
34081;BME280;20358;50.272;19.026;2023-04-22T07:03:36;98153.13;;;10.60;42.92
34081;BME280;20358;50.272;19.026;2023-04-22T07:06:45;98151.28;;;10.72;42.51
34081;BME280;20358;50.272;19.026;2023-04-22T07:09:51;98153.47;;;10.78;42.03
34081;BME280;20358;50.272;19.026;2023-04-22T07:13:04;98152.38;;;10.91;41.46
34081;BME280;20358;50.272;19.026;2023-04-22T07:16:10;98157.41;;;11.05;41.22
34081;BME280;20358;50.272;19.026;2023-04-22T07:19:16;98158.94;;;11.19;40.78
34081;BME280;20358;50.272;19.026;2023-04-22T07:22:22;98153.44;;;11.33;40.72
34081;BME280;20358;50.272;19.026;2023-04-22T07:25:28;98157.72;;;11.45;39.98
34081;BME280;20358;50.272;19.026;2023-04-22T07:28:36;98153.38;;;11.55;39.36
34081;BME280;20358;50.272;19.026;2023-04-22T07:31:43;98155.00;;;11.67;38.87
34081;BME280;20358;50.272;19.026;2023-04-22T07:34:48;98150.53;;;11.79;39.12
34081;BME280;20358;50.272;19.026;2023-04-22T07:37:55;98159.38;;;11.89;38.52
34081;BME280;20358;50.272;19.026;2023-04-22T07:41:00;98160.16;;;12.01;38.63
34081;BME280;20358;50.272;19.026;2023-04-22T07:44:10;98154.94;;;12.10;37.85
34081;BME280;20358;50.272;19.026;2023-04-22T07:47:19;98155.03;;;12.20;37.65
34081;BME280;20358;50.272;19.026;2023-04-22T07:50:26;98150.63;;;12.30;37.22
34081;BME280;20358;50.272;19.026;2023-04-22T07:53:32;98154.31;;;12.39;36.65
34081;BME280;20358;50.272;19.026;2023-04-22T07:56:38;98163.03;;;12.50;36.76
34081;BME280;20358;50.272;19.026;2023-04-22T07:59:46;98154.19;;;12.61;36.26
34081;BME280;20358;50.272;19.026;2023-04-22T08:02:53;98156.16;;;12.68;35.48
34081;BME280;20358;50.272;19.026;2023-04-22T08:05:58;98153.97;;;12.73;34.77
34081;BME280;20358;50.272;19.026;2023-04-22T08:09:05;98153.13;;;12.82;34.48
34081;BME280;20358;50.272;19.026;2023-04-22T08:12:11;98154.56;;;12.86;33.54
34081;BME280;20358;50.272;19.026;2023-04-22T08:15:21;98161.28;;;12.90;32.70
34081;BME280;20358;50.272;19.026;2023-04-22T08:18:26;98156.13;;;12.99;33.63
34081;BME280;20358;50.272;19.026;2023-04-22T08:21:33;98158.25;;;13.05;33.44
34081;BME280;20358;50.272;19.026;2023-04-22T08:24:38;98156.78;;;13.12;33.26
34081;BME280;20358;50.272;19.026;2023-04-22T08:27:44;98160.13;;;13.14;32.50
34081;BME280;20358;50.272;19.026;2023-04-22T08:30:53;98157.22;;;13.17;32.95
34081;BME280;20358;50.272;19.026;2023-04-22T08:33:59;98120.84;;;12.98;32.83
34081;BME280;20358;50.272;19.026;2023-04-22T08:37:05;98156.38;;;13.26;32.39
34081;BME280;20358;50.272;19.026;2023-04-22T08:40:12;98151.91;;;13.26;31.52
34081;BME280;20358;50.272;19.026;2023-04-22T08:43:18;98142.72;;;13.30;31.53
34081;BME280;20358;50.272;19.026;2023-04-22T08:46:29;98139.41;;;13.38;31.79
34081;BME280;20358;50.272;19.026;2023-04-22T08:49:36;98152.09;;;13.44;30.87
34081;BME280;20358;50.272;19.026;2023-04-22T08:52:43;98151.25;;;13.34;30.71
34081;BME280;20358;50.272;19.026;2023-04-22T08:55:50;98142.03;;;13.28;32.10
34081;BME280;20358;50.272;19.026;2023-04-22T08:58:57;98149.16;;;13.28;31.62
34081;BME280;20358;50.272;19.026;2023-04-22T09:02:05;98142.47;;;13.33;31.69
34081;BME280;20358;50.272;19.026;2023-04-22T09:05:21;98137.44;;;13.40;32.05
34081;BME280;20358;50.272;19.026;2023-04-22T09:08:29;98137.59;;;13.48;31.88
34081;BME280;20358;50.272;19.026;2023-04-22T09:11:36;98134.66;;;13.51;31.29
34081;BME280;20358;50.272;19.026;2023-04-22T09:14:43;98136.63;;;13.49;31.89
34081;BME280;20358;50.272;19.026;2023-04-22T09:17:53;98135.63;;;13.50;31.89
34081;BME280;20358;50.272;19.026;2023-04-22T09:20:59;98131.19;;;13.50;32.26
34081;BME280;20358;50.272;19.026;2023-04-22T09:24:07;98130.22;;;13.52;31.53
34081;BME280;20358;50.272;19.026;2023-04-22T09:27:15;98133.56;;;13.54;32.01
34081;BME280;20358;50.272;19.026;2023-04-22T09:30:24;98118.75;;;13.61;32.46
34081;BME280;20358;50.272;19.026;2023-04-22T09:33:37;98121.28;;;13.72;32.86
34081;BME280;20358;50.272;19.026;2023-04-22T09:36:44;98116.81;;;13.82;32.26
34081;BME280;20358;50.272;19.026;2023-04-22T09:39:51;98116.53;;;13.94;32.12
34081;BME280;20358;50.272;19.026;2023-04-22T09:43:00;98115.72;;;14.03;32.47
34081;BME280;20358;50.272;19.026;2023-04-22T09:46:08;98108.16;;;14.08;31.68
34081;BME280;20358;50.272;19.026;2023-04-22T09:49:19;98107.84;;;14.11;32.26
34081;BME280;20358;50.272;19.026;2023-04-22T09:52:25;98117.06;;;14.17;32.18
34081;BME280;20358;50.272;19.026;2023-04-22T09:55:35;98105.03;;;14.23;32.18
34081;BME280;20358;50.272;19.026;2023-04-22T09:58:42;98102.78;;;14.28;32.11
34081;BME280;20358;50.272;19.026;2023-04-22T10:01:50;98089.91;;;14.33;31.52
34081;BME280;20358;50.272;19.026;2023-04-22T10:05:00;98100.13;;;14.37;32.19
34081;BME280;20358;50.272;19.026;2023-04-22T10:08:08;98092.56;;;14.42;31.46
34081;BME280;20358;50.272;19.026;2023-04-22T10:11:14;98094.38;;;14.42;31.47
34081;BME280;20358;50.272;19.026;2023-04-22T10:14:21;98086.13;;;14.45;31.98
34081;BME280;20358;50.272;19.026;2023-04-22T10:17:30;98095.47;;;14.49;31.75
34081;BME280;20358;50.272;19.026;2023-04-22T10:20:42;98093.19;;;14.54;32.05
34081;BME280;20358;50.272;19.026;2023-04-22T10:23:49;98082.28;;;14.57;31.77
34081;BME280;20358;50.272;19.026;2023-04-22T10:26:58;98081.16;;;14.59;31.98
34081;BME280;20358;50.272;19.026;2023-04-22T10:30:09;98068.03;;;14.58;31.60
34081;BME280;20358;50.272;19.026;2023-04-22T10:33:40;98064.25;;;14.60;31.38
34081;BME280;20358;50.272;19.026;2023-04-22T10:36:57;98064.09;;;14.62;31.29
34081;BME280;20358;50.272;19.026;2023-04-22T10:40:08;98059.75;;;14.61;31.54
34081;BME280;20358;50.272;19.026;2023-04-22T10:43:39;98057.63;;;14.64;32.08
34081;BME280;20358;50.272;19.026;2023-04-22T10:46:59;98054.53;;;14.69;31.76
34081;BME280;20358;50.272;19.026;2023-04-22T10:50:15;98056.34;;;14.78;31.68
34081;BME280;20358;50.272;19.026;2023-04-22T10:53:38;98052.78;;;14.87;31.68
34081;BME280;20358;50.272;19.026;2023-04-22T10:56:59;98048.19;;;14.89;32.01
34081;BME280;20358;50.272;19.026;2023-04-22T11:00:19;98061.69;;;14.96;31.13
34081;BME280;20358;50.272;19.026;2023-04-22T11:04:18;98059.59;;;14.99;31.41
34081;BME280;20358;50.272;19.026;2023-04-22T11:07:29;98053.56;;;14.97;30.54
34081;BME280;20358;50.272;19.026;2023-04-22T11:10:42;98042.63;;;15.00;30.89
34081;BME280;20358;50.272;19.026;2023-04-22T11:13:50;98043.88;;;15.06;31.20
34081;BME280;20358;50.272;19.026;2023-04-22T11:16:56;98038.09;;;15.10;30.50
34081;BME280;20358;50.272;19.026;2023-04-22T11:20:05;98032.09;;;15.08;30.17
34081;BME280;20358;50.272;19.026;2023-04-22T11:23:16;98021.63;;;15.07;29.77
34081;BME280;20358;50.272;19.026;2023-04-22T11:26:34;98020.56;;;15.17;30.37
34081;BME280;20358;50.272;19.026;2023-04-22T11:29:42;98013.63;;;15.24;30.14
34081;BME280;20358;50.272;19.026;2023-04-22T11:32:49;98016.69;;;15.29;30.18
34081;BME280;20358;50.272;19.026;2023-04-22T11:35:56;98017.44;;;15.40;29.96
34081;BME280;20358;50.272;19.026;2023-04-22T11:39:07;98017.97;;;15.43;29.92
34081;BME280;20358;50.272;19.026;2023-04-22T11:42:22;98021.84;;;15.49;29.83
34081;BME280;20358;50.272;19.026;2023-04-22T11:45:29;98023.88;;;15.55;29.75
34081;BME280;20358;50.272;19.026;2023-04-22T11:48:36;98011.97;;;15.59;29.29
34081;BME280;20358;50.272;19.026;2023-04-22T11:51:55;98020.66;;;15.61;29.22
34081;BME280;20358;50.272;19.026;2023-04-22T11:55:01;98014.34;;;15.62;29.58
34081;BME280;20358;50.272;19.026;2023-04-22T11:58:12;98007.03;;;15.64;29.10
34081;BME280;20358;50.272;19.026;2023-04-22T12:01:19;98001.84;;;15.62;29.20
34081;BME280;20358;50.272;19.026;2023-04-22T12:04:25;98001.41;;;15.67;29.59
34081;BME280;20358;50.272;19.026;2023-04-22T12:07:31;97997.25;;;15.72;29.95
34081;BME280;20358;50.272;19.026;2023-04-22T12:10:40;98003.00;;;15.77;29.62
34081;BME280;20358;50.272;19.026;2023-04-22T12:13:49;98007.53;;;15.85;29.09
34081;BME280;20358;50.272;19.026;2023-04-22T12:16:56;98002.72;;;15.88;28.39
34081;BME280;20358;50.272;19.026;2023-04-22T12:20:02;97992.91;;;15.89;28.41
34081;BME280;20358;50.272;19.026;2023-04-22T12:23:14;97997.91;;;15.92;28.05
34081;BME280;20358;50.272;19.026;2023-04-22T12:26:21;97991.56;;;15.93;27.89
34081;BME280;20358;50.272;19.026;2023-04-22T12:29:32;97998.28;;;15.97;28.29
34081;BME280;20358;50.272;19.026;2023-04-22T12:32:38;97989.31;;;15.98;28.12
34081;BME280;20358;50.272;19.026;2023-04-22T12:35:45;97984.84;;;16.07;28.59
34081;BME280;20358;50.272;19.026;2023-04-22T12:38:53;97990.03;;;16.08;27.25
34081;BME280;20358;50.272;19.026;2023-04-22T12:41:59;97992.03;;;16.14;26.63
34081;BME280;20358;50.272;19.026;2023-04-22T12:45:10;97993.72;;;16.15;27.65
34081;BME280;20358;50.272;19.026;2023-04-22T12:48:18;97979.44;;;16.16;27.52
34081;BME280;20358;50.272;19.026;2023-04-22T12:51:23;97982.59;;;16.20;28.29
34081;BME280;20358;50.272;19.026;2023-04-22T12:54:30;97965.41;;;16.14;26.54
34081;BME280;20358;50.272;19.026;2023-04-22T12:57:35;97978.09;;;16.20;27.08
34081;BME280;20358;50.272;19.026;2023-04-22T13:00:44;97977.44;;;16.18;26.88
34081;BME280;20358;50.272;19.026;2023-04-22T13:03:50;97973.03;;;16.09;27.00
34081;BME280;20358;50.272;19.026;2023-04-22T13:06:57;97964.59;;;16.14;27.20
34081;BME280;20358;50.272;19.026;2023-04-22T13:10:03;97961.44;;;16.18;27.21
34081;BME280;20358;50.272;19.026;2023-04-22T13:13:11;97961.63;;;16.25;27.88
34081;BME280;20358;50.272;19.026;2023-04-22T13:16:23;97954.56;;;16.33;27.66
34081;BME280;20358;50.272;19.026;2023-04-22T13:19:29;97952.41;;;16.37;28.34
34081;BME280;20358;50.272;19.026;2023-04-22T13:22:36;97953.75;;;16.41;27.38
34081;BME280;20358;50.272;19.026;2023-04-22T13:25:43;97949.59;;;16.46;27.31
34081;BME280;20358;50.272;19.026;2023-04-22T13:28:49;97947.97;;;16.53;27.21
34081;BME280;20358;50.272;19.026;2023-04-22T13:31:58;97940.97;;;16.61;26.81
34081;BME280;20358;50.272;19.026;2023-04-22T13:35:04;97950.34;;;16.65;26.31
34081;BME280;20358;50.272;19.026;2023-04-22T13:38:11;97947.66;;;16.65;25.00
34081;BME280;20358;50.272;19.026;2023-04-22T13:41:17;97941.31;;;16.58;24.63
34081;BME280;20358;50.272;19.026;2023-04-22T13:44:23;97935.47;;;16.54;25.32
34081;BME280;20358;50.272;19.026;2023-04-22T13:47:31;97931.66;;;16.57;26.07
34081;BME280;20358;50.272;19.026;2023-04-22T13:50:38;97942.34;;;16.65;25.92
34081;BME280;20358;50.272;19.026;2023-04-22T13:53:44;97936.69;;;16.68;25.93
34081;BME280;20358;50.272;19.026;2023-04-22T13:56:50;97934.03;;;16.76;26.05
34081;BME280;20358;50.272;19.026;2023-04-22T13:59:57;97938.38;;;16.85;25.96
34081;BME280;20358;50.272;19.026;2023-04-22T14:03:16;97925.38;;;16.90;25.47
34081;BME280;20358;50.272;19.026;2023-04-22T14:06:21;97924.06;;;16.94;25.16
34081;BME280;20358;50.272;19.026;2023-04-22T14:09:29;97929.88;;;16.97;24.83
34081;BME280;20358;50.272;19.026;2023-04-22T14:12:35;97929.41;;;16.94;24.19
34081;BME280;20358;50.272;19.026;2023-04-22T14:15:41;97928.72;;;16.92;24.69
34081;BME280;20358;50.272;19.026;2023-04-22T14:18:50;97920.03;;;16.90;24.32
34081;BME280;20358;50.272;19.026;2023-04-22T14:21:57;97920.25;;;16.96;24.47
34081;BME280;20358;50.272;19.026;2023-04-22T14:25:04;97923.06;;;17.03;24.38
34081;BME280;20358;50.272;19.026;2023-04-22T14:28:11;97918.28;;;17.06;24.34
34081;BME280;20358;50.272;19.026;2023-04-22T14:31:17;97911.44;;;17.12;23.66
34081;BME280;20358;50.272;19.026;2023-04-22T14:34:29;97914.44;;;17.09;23.68
34081;BME280;20358;50.272;19.026;2023-04-22T14:37:34;97917.44;;;17.14;24.22
34081;BME280;20358;50.272;19.026;2023-04-22T14:40:43;97910.44;;;17.21;24.21
34081;BME280;20358;50.272;19.026;2023-04-22T14:43:49;97910.75;;;17.26;24.18
34081;BME280;20358;50.272;19.026;2023-04-22T14:46:55;97914.41;;;17.33;23.78
34081;BME280;20358;50.272;19.026;2023-04-22T14:50:04;97919.75;;;17.41;24.12
34081;BME280;20358;50.272;19.026;2023-04-22T14:53:11;97911.75;;;17.49;24.28
34081;BME280;20358;50.272;19.026;2023-04-22T14:56:17;97905.75;;;17.55;23.66
34081;BME280;20358;50.272;19.026;2023-04-22T14:59:24;97902.09;;;17.56;23.63
34081;BME280;20358;50.272;19.026;2023-04-22T15:02:30;97889.06;;;17.45;23.38
34081;BME280;20358;50.272;19.026;2023-04-22T15:05:40;97902.75;;;17.50;23.41
34081;BME280;20358;50.272;19.026;2023-04-22T15:08:50;97891.56;;;17.55;23.80
34081;BME280;20358;50.272;19.026;2023-04-22T15:11:58;97896.38;;;17.59;23.57
34081;BME280;20358;50.272;19.026;2023-04-22T15:15:06;97888.69;;;17.64;23.64
34081;BME280;20358;50.272;19.026;2023-04-22T15:18:15;97883.00;;;17.67;23.72
34081;BME280;20358;50.272;19.026;2023-04-22T15:21:23;97890.03;;;17.76;24.70
34081;BME280;20358;50.272;19.026;2023-04-22T15:24:30;97896.19;;;17.85;23.63
34081;BME280;20358;50.272;19.026;2023-04-22T15:27:36;97883.97;;;17.91;23.74
34081;BME280;20358;50.272;19.026;2023-04-22T15:30:43;97878.97;;;17.96;23.85
34081;BME280;20358;50.272;19.026;2023-04-22T15:33:49;97879.97;;;18.03;23.85
34081;BME280;20358;50.272;19.026;2023-04-22T15:36:59;97885.06;;;18.20;24.45
34081;BME280;20358;50.272;19.026;2023-04-22T15:40:06;97879.94;;;18.50;23.62
34081;BME280;20358;50.272;19.026;2023-04-22T15:43:13;97887.78;;;18.96;22.63
34081;BME280;20358;50.272;19.026;2023-04-22T15:46:20;97882.66;;;19.55;22.29
34081;BME280;20358;50.272;19.026;2023-04-22T15:49:26;97891.84;;;20.19;22.52
34081;BME280;20358;50.272;19.026;2023-04-22T15:52:36;97877.56;;;20.84;21.57
34081;BME280;20358;50.272;19.026;2023-04-22T15:55:43;97882.50;;;21.44;21.38
34081;BME280;20358;50.272;19.026;2023-04-22T15:58:50;97875.44;;;21.91;20.29
34081;BME280;20358;50.272;19.026;2023-04-22T16:01:57;97876.13;;;22.41;20.38
34081;BME280;20358;50.272;19.026;2023-04-22T16:05:04;97879.97;;;22.86;19.82
34081;BME280;20358;50.272;19.026;2023-04-22T16:08:14;97880.06;;;23.25;19.41
34081;BME280;20358;50.272;19.026;2023-04-22T16:11:20;97879.28;;;23.57;19.72
34081;BME280;20358;50.272;19.026;2023-04-22T16:14:26;97878.19;;;23.85;18.65
34081;BME280;20358;50.272;19.026;2023-04-22T16:17:32;97878.78;;;23.93;18.42
34081;BME280;20358;50.272;19.026;2023-04-22T16:20:39;97875.03;;;24.20;19.08
34081;BME280;20358;50.272;19.026;2023-04-22T16:23:48;97878.72;;;24.32;18.60
34081;BME280;20358;50.272;19.026;2023-04-22T16:26:54;97867.09;;;24.32;18.07
34081;BME280;20358;50.272;19.026;2023-04-22T16:30:00;97867.47;;;24.42;18.56
34081;BME280;20358;50.272;19.026;2023-04-22T16:33:07;97871.59;;;24.45;17.78